Time;durP1;ratioP1;P1;durP2;ratioP2;P2;SDS_P1;SDS_P2;PMS_P1;PMS_P2;Temp;Humidity;BMP_temperature;BMP_pressure;BME280_temperature;BME280_humidity;BME280_pressure;Samples;Min_cycle;Max_cycle;Signal;HPM_P1;HPM_P2
2023/09/14 00:02:03;;;;;;;0.65;0.50;;;;;;;22.60;52.92;102251.59;5111692;28;20027;-74
2023/09/14 00:04:28;;;;;;;1.25;0.60;;;;;;;22.79;52.75;102285.75;5113359;28;20050;-74
2023/09/14 00:06:53;;;;;;;0.85;0.60;;;;;;;22.61;52.71;102250.59;5109483;28;20028;-74
2023/09/14 00:09:19;;;;;;;1.38;0.75;;;;;;;22.78;52.89;102283.22;5119333;28;20052;-74
2023/09/14 00:11:44;;;;;;;0.95;0.80;;;;;;;22.77;52.89;102281.50;5115632;28;20540;-74
2023/09/14 00:14:09;;;;;;;0.73;0.57;;;;;;;22.77;52.78;102276.94;5112014;28;20019;-74
2023/09/14 00:16:35;;;;;;;1.17;0.65;;;;;;;22.76;52.54;102277.09;5120229;28;20054;-74
2023/09/14 00:19:00;;;;;;;0.60;0.45;;;;;;;22.68;52.59;102270.63;5113980;28;20044;-74
2023/09/14 00:21:25;;;;;;;1.15;0.60;;;;;;;22.54;52.84;102244.09;5110864;28;20472;-74
2023/09/14 00:23:50;;;;;;;1.42;0.70;;;;;;;22.72;52.55;102271.13;5107665;28;20039;-74
2023/09/14 00:26:16;;;;;;;1.30;0.60;;;;;;;22.46;52.78;102223.22;5106880;28;20106;-74
2023/09/14 00:28:41;;;;;;;1.48;0.73;;;;;;;22.67;52.63;102254.50;5112037;28;20028;-74
2023/09/14 00:31:06;;;;;;;1.88;0.77;;;;;;;22.71;52.76;102264.00;5107181;28;20024;-74
2023/09/14 00:33:32;;;;;;;1.75;1.00;;;;;;;22.68;52.74;102259.78;5107785;28;20024;-74
2023/09/14 00:35:57;;;;;;;1.73;0.65;;;;;;;22.70;52.52;102267.75;5111299;28;20030;-74
2023/09/14 00:38:22;;;;;;;0.70;0.50;;;;;;;22.43;52.41;102225.41;5107881;28;20028;-74
2023/09/14 00:40:48;;;;;;;1.40;0.70;;;;;;;22.68;52.59;102265.22;5120086;28;20391;-74
2023/09/14 00:43:14;;;;;;;1.02;0.60;;;;;;;22.48;52.46;102238.47;5112523;28;20083;-74
2023/09/14 00:45:40;;;;;;;1.35;0.82;;;;;;;22.67;52.59;102278.91;5108644;28;20031;-74
2023/09/14 00:48:06;;;;;;;1.13;0.70;;;;;;;22.65;52.53;102264.66;5108508;28;20036;-74
2023/09/14 00:50:32;;;;;;;0.60;0.60;;;;;;;22.65;52.35;102265.53;5112720;28;20023;-74
2023/09/14 00:53:04;;;;;;;3.50;1.25;;;;;;;22.53;52.62;102253.25;5117793;28;20028;-74
2023/09/14 00:55:30;;;;;;;2.30;1.02;;;;;;;22.42;52.49;102238.09;5124326;28;20027;-74
2023/09/14 00:57:57;;;;;;;2.97;1.00;;;;;;;22.62;52.43;102265.84;5115077;28;20030;-74
2023/09/14 01:00:22;;;;;;;0.77;0.63;;;;;;;22.61;52.31;102261.44;5110682;28;20055;-74
2023/09/14 01:02:51;;;;;;;1.58;0.70;;;;;;;22.43;52.25;102234.38;5105631;28;20468;-74
2023/09/14 01:05:17;;;;;;;;;;;;;;;22.60;52.36;102267.88;5121861;28;20023;-74
2023/09/14 01:07:42;;;;;;;2.28;0.88;;;;;;;22.59;52.08;102262.59;5120597;28;19977;-74
2023/09/14 01:10:12;;;;;;;1.63;0.70;;;;;;;22.58;52.22;102260.91;5112192;28;20042;-74
2023/09/14 01:12:39;;;;;;;1.13;0.70;;;;;;;22.51;52.35;102257.13;5114618;28;20024;-74
2023/09/14 01:15:19;;;;;;;1.65;1.00;;;;;;;22.56;52.26;102271.06;5120202;27;20019;-74
2023/09/14 01:18:02;;;;;;;1.92;0.90;;;;;;;22.47;52.22;102251.16;5114403;28;20107;-74
2023/09/14 01:20:55;;;;;;;1.15;0.75;;;;;;;22.54;52.15;102265.78;5112175;28;20028;-74
2023/09/14 01:23:47;;;;;;;1.02;0.60;;;;;;;22.54;52.36;102263.06;5114553;28;20069;-73
2023/09/14 01:26:13;;;;;;;1.23;0.80;;;;;;;22.53;52.36;102266.78;5114561;28;20032;-74
2023/09/14 01:28:39;;;;;;;1.95;0.80;;;;;;;22.53;51.92;102263.25;5109701;28;20040;-74
2023/09/14 01:31:04;;;;;;;0.95;0.68;;;;;;;22.49;51.29;102257.28;5113528;28;20110;-74
2023/09/14 01:33:31;;;;;;;1.02;0.60;;;;;;;22.39;52.01;102248.44;5114704;28;20484;-74
2023/09/14 01:36:03;;;;;;;1.85;0.90;;;;;;;22.37;52.03;102242.28;5103558;28;20091;-74
2023/09/14 01:38:29;;;;;;;0.90;0.70;;;;;;;22.43;51.72;102255.22;5115797;28;20026;-74
2023/09/14 01:40:55;;;;;;;1.08;0.73;;;;;;;22.48;51.92;102271.84;5101128;28;20024;-74
2023/09/14 01:43:20;;;;;;;1.42;0.50;;;;;;;22.47;52.03;102267.41;5108150;28;20020;-74
2023/09/14 01:45:46;;;;;;;1.38;0.60;;;;;;;22.30;52.10;102239.38;5120978;28;20019;-74
2023/09/14 01:48:15;;;;;;;0.98;0.60;;;;;;;22.45;51.83;102261.31;5104515;28;20036;-74
2023/09/14 01:50:41;;;;;;;0.80;0.60;;;;;;;22.32;51.85;102239.22;5106367;28;20087;-74
2023/09/14 01:53:07;;;;;;;1.58;0.70;;;;;;;22.44;51.86;102259.63;5117317;28;20042;-74
2023/09/14 01:55:32;;;;;;;2.05;0.65;;;;;;;22.35;51.95;102241.63;5120841;28;20051;-74
2023/09/14 01:57:57;;;;;;;0.82;0.60;;;;;;;22.35;51.82;102249.75;5120546;28;20020;-74
2023/09/14 02:00:25;;;;;;;0.70;0.60;;;;;;;22.41;51.78;102263.50;5103026;28;20107;-74
2023/09/14 02:02:51;;;;;;;1.10;0.68;;;;;;;22.25;51.93;102235.44;5109823;28;20027;-73
2023/09/14 02:05:16;;;;;;;1.15;0.65;;;;;;;22.39;51.91;102251.97;5108150;28;20024;-74
2023/09/14 02:07:42;;;;;;;1.20;0.70;;;;;;;22.00;51.74;102188.31;5100242;28;20034;-74
2023/09/14 02:10:07;;;;;;;0.70;0.50;;;;;;;22.33;51.72;102243.63;5107857;28;20035;-74
2023/09/14 02:12:32;;;;;;;1.20;0.60;;;;;;;22.37;51.81;102245.84;5113115;28;20028;-74
2023/09/14 02:14:58;;;;;;;1.08;0.60;;;;;;;22.20;51.95;102219.66;5118029;27;20031;-74
2023/09/14 02:17:23;;;;;;;0.63;0.55;;;;;;;22.35;51.66;102250.59;5109244;28;20020;-74
2023/09/14 02:19:48;;;;;;;1.08;0.65;;;;;;;22.19;51.49;102223.38;5114985;28;20031;-74
2023/09/14 02:22:14;;;;;;;1.15;0.60;;;;;;;22.34;51.59;102248.88;5116016;28;20032;-74
2023/09/14 02:24:39;;;;;;;0.95;0.60;;;;;;;22.16;51.62;102216.41;5106849;28;20024;-74
2023/09/14 02:27:04;;;;;;;1.02;0.70;;;;;;;22.18;51.37;102214.41;5118269;28;20043;-74
2023/09/14 02:29:30;;;;;;;0.80;0.60;;;;;;;22.31;51.44;102242.94;5112794;28;20024;-74
2023/09/14 02:31:56;;;;;;;0.80;0.60;;;;;;;22.30;51.52;102243.94;5120024;28;20024;-74
2023/09/14 02:34:21;;;;;;;1.00;0.70;;;;;;;22.29;51.56;102239.53;5103173;28;20026;-74
2023/09/14 02:36:46;;;;;;;1.30;0.77;;;;;;;22.01;51.62;102190.06;5105194;28;20027;-74
2023/09/14 02:39:12;;;;;;;0.70;0.43;;;;;;;22.28;51.44;102235.13;5119414;28;20035;-74
2023/09/14 02:41:38;;;;;;;1.42;0.80;;;;;;;21.98;51.43;102183.06;5105710;28;20076;-74
2023/09/14 02:44:03;;;;;;;1.63;0.57;;;;;;;22.07;51.26;102200.25;5104923;28;20496;-74
2023/09/14 02:46:28;;;;;;;1.38;0.70;;;;;;;22.13;51.32;102211.34;5107215;28;20036;-74
2023/09/14 02:48:53;;;;;;;0.73;0.50;;;;;;;22.09;51.32;102209.91;5112305;28;20020;-74
2023/09/14 02:51:19;;;;;;;0.77;0.40;;;;;;;22.23;51.26;102232.91;5109628;28;20027;-74
2023/09/14 02:53:44;;;;;;;1.75;0.80;;;;;;;22.07;51.61;102206.50;5109314;28;20032;-74
2023/09/14 02:56:10;;;;;;;1.63;0.60;;;;;;;22.06;51.42;102204.81;5107960;28;20023;-73
2023/09/14 02:58:35;;;;;;;0.80;0.50;;;;;;;22.02;51.24;102203.41;5106222;28;20499;-74
2023/09/14 03:01:10;;;;;;;2.90;0.70;;;;;;;22.18;51.24;102233.38;5109091;28;20031;-74
2023/09/14 03:03:36;;;;;;;1.75;0.50;;;;;;;22.19;51.46;102242.34;5108639;28;20050;-74
2023/09/14 03:06:02;;;;;;;1.50;0.70;;;;;;;22.13;51.34;102216.75;5119322;28;20036;-74
2023/09/14 03:08:27;;;;;;;0.75;0.50;;;;;;;21.94;51.34;102195.22;5109812;28;20048;-74
2023/09/14 03:10:53;;;;;;;0.73;0.55;;;;;;;21.99;51.06;102201.03;5108489;28;20568;-74
2023/09/14 03:13:18;;;;;;;0.90;0.52;;;;;;;22.13;50.96;102227.59;5108265;28;20026;-74
2023/09/14 03:15:43;;;;;;;2.72;0.70;;;;;;;22.14;51.21;102236.56;5113361;28;20726;-74
2023/09/14 03:18:09;;;;;;;0.95;0.50;;;;;;;;;;5108855;28;20457;-74
2023/09/14 03:20:34;;;;;;;0.50;0.47;;;;;;;22.07;50.87;102228.16;5109914;28;20031;-74
2023/09/14 03:23:00;;;;;;;1.00;0.52;;;;;;;21.63;51.10;102152.34;5110899;28;20027;-74
2023/09/14 03:25:26;;;;;;;1.67;0.95;;;;;;;21.92;50.96;102199.97;5118750;28;20024;-74
2023/09/14 03:27:51;;;;;;;1.05;0.60;;;;;;;22.11;50.97;102236.84;5110237;28;20035;-74
2023/09/14 03:30:16;;;;;;;0.70;0.50;;;;;;;21.96;51.11;102220.28;5111481;28;20026;-74
2023/09/14 03:32:42;;;;;;;0.90;0.70;;;;;;;22.09;50.87;102244.25;5089376;28;20024;-74
2023/09/14 03:35:07;;;;;;;0.77;0.52;;;;;;;22.07;51.04;102233.59;5112695;28;20042;-74
2023/09/14 03:37:32;;;;;;;0.93;0.60;;;;;;;22.08;51.01;102239.84;5111510;28;20053;-73
2023/09/14 03:39:58;;;;;;;1.15;0.60;;;;;;;22.07;50.99;102241.72;5119432;28;20024;-73
2023/09/14 03:42:23;;;;;;;1.00;0.68;;;;;;;22.06;50.72;102236.47;5108037;28;20358;-74
2023/09/14 03:44:48;;;;;;;1.52;0.95;;;;;;;22.05;50.93;102243.75;5122505;28;20024;-74
2023/09/14 03:47:13;;;;;;;0.98;0.60;;;;;;;22.00;50.93;102232.50;5111739;28;20027;-74
2023/09/14 03:49:39;;;;;;;1.30;0.60;;;;;;;21.91;50.85;102228.03;5121796;28;20098;-74
2023/09/14 03:52:04;;;;;;;1.25;0.70;;;;;;;21.82;51.01;102205.47;5119693;28;20035;-74
2023/09/14 03:54:29;;;;;;;2.25;1.00;;;;;;;21.89;50.85;102225.50;5110365;28;20106;-74
2023/09/14 03:56:55;;;;;;;0.98;0.75;;;;;;;22.02;50.82;102243.19;5123101;28;20021;-74
2023/09/14 03:59:20;;;;;;;0.93;0.70;;;;;;;22.01;50.68;102241.50;5106086;28;20024;-74
2023/09/14 04:01:46;;;;;;;1.13;0.77;;;;;;;21.88;50.61;102221.09;5116795;28;20060;-74
2023/09/14 04:04:11;;;;;;;0.90;0.60;;;;;;;21.96;50.77;102240.13;5124552;28;20023;-74
2023/09/14 04:06:36;;;;;;;1.33;0.73;;;;;;;21.95;50.84;102232.97;5112688;28;20024;-74
2023/09/14 04:09:03;;;;;;;2.22;0.70;;;;;;;21.91;50.80;102226.16;5114625;28;20047;-74
2023/09/14 04:11:28;;;;;;;1.10;0.70;;;;;;;21.95;50.89;102238.38;5118490;28;20055;-74
2023/09/14 04:13:54;;;;;;;1.00;0.70;;;;;;;21.95;50.80;102234.84;5113397;27;20027;-73
2023/09/14 04:16:19;;;;;;;1.52;0.60;;;;;;;21.75;50.82;102200.81;5118467;28;20106;-74
2023/09/14 04:18:45;;;;;;;0.95;0.50;;;;;;;21.80;50.77;102220.19;5115812;28;20051;-74
2023/09/14 04:21:10;;;;;;;0.93;0.50;;;;;;;21.90;50.54;102237.16;5108769;28;20161;-74
2023/09/14 04:23:35;;;;;;;1.42;0.77;;;;;;;21.90;50.73;102229.06;5119463;28;20042;-73
2023/09/14 04:26:01;;;;;;;1.50;0.70;;;;;;;21.77;50.58;102204.22;5115283;28;20823;-73
2023/09/14 04:28:26;;;;;;;1.23;0.70;;;;;;;21.91;50.65;102231.59;5108005;28;20030;-73
2023/09/14 04:30:54;;;;;;;1.17;0.70;;;;;;;21.76;50.62;102211.50;5119222;28;20028;-74
2023/09/14 04:33:19;;;;;;;0.70;0.50;;;;;;;21.90;50.55;102250.72;5113422;28;20028;-74
2023/09/14 04:35:45;;;;;;;1.08;0.60;;;;;;;21.89;50.46;102239.03;5091627;28;20060;-73
2023/09/14 04:38:11;;;;;;;1.77;0.60;;;;;;;21.88;50.63;102236.50;5120177;28;20036;-74
2023/09/14 04:40:38;;;;;;;0.95;0.40;;;;;;;21.62;50.33;102193.97;5105902;28;20024;-74
2023/09/14 04:43:04;;;;;;;0.68;0.57;;;;;;;21.81;50.69;102233.53;5114248;28;20053;-74
2023/09/14 04:45:29;;;;;;;1.15;0.50;;;;;;;21.69;50.41;102221.25;5111085;28;20118;-74
2023/09/14 04:47:55;;;;;;;0.80;0.60;;;;;;;21.72;50.72;102229.06;5106125;28;20067;-74
2023/09/14 04:50:20;;;;;;;0.50;0.40;;;;;;;21.80;50.54;102242.69;5109545;28;20032;-74
2023/09/14 04:52:45;;;;;;;0.93;0.50;;;;;;;21.84;50.47;102254.06;5110874;28;20047;-74
2023/09/14 04:55:11;;;;;;;0.98;0.40;;;;;;;21.58;50.53;102207.94;5107811;28;20024;-74
2023/09/14 04:57:36;;;;;;;0.68;0.60;;;;;;;21.77;50.58;102251.09;5111599;28;20016;-74
2023/09/14 05:00:04;;;;;;;0.90;0.50;;;;;;;21.82;50.41;102256.06;5108600;28;20032;-73
2023/09/14 05:02:29;;;;;;;1.05;0.45;;;;;;;21.64;50.15;102226.28;5116822;28;20030;-74
2023/09/14 05:04:54;;;;;;;0.80;0.50;;;;;;;21.80;50.41;102258.91;5111265;28;20083;-74
2023/09/14 05:07:20;;;;;;;0.85;0.70;;;;;;;21.79;50.66;102259.94;5112869;28;20032;-73
2023/09/14 05:09:46;;;;;;;0.63;0.50;;;;;;;21.46;50.33;102216.31;5122346;28;20048;-74
2023/09/14 05:12:11;;;;;;;0.65;0.60;;;;;;;21.65;50.59;102249.63;5110381;28;20101;-74
2023/09/14 05:14:36;;;;;;;0.55;0.50;;;;;;;21.50;50.56;102227.69;5115852;27;20050;-73
2023/09/14 05:17:02;;;;;;;1.13;0.50;;;;;;;21.77;50.58;102269.22;5123590;28;20191;-74
2023/09/14 05:19:29;;;;;;;1.25;0.80;;;;;;;21.68;50.39;102261.00;5111800;28;20031;-74
2023/09/14 05:21:54;;;;;;;1.08;0.63;;;;;;;21.76;50.45;102276.47;5109375;28;20118;-74
2023/09/14 05:24:20;;;;;;;0.90;0.45;;;;;;;21.55;50.08;102243.44;5110425;28;20384;-74
2023/09/14 05:26:47;;;;;;;0.60;0.50;;;;;;;21.52;50.31;102247.31;5112471;28;20039;-74
2023/09/14 05:29:13;;;;;;;1.15;0.70;;;;;;;21.52;50.49;102250.00;5109600;28;20039;-74
2023/09/14 05:31:38;;;;;;;1.30;0.30;;;;;;;21.73;50.38;102278.63;5111206;28;20028;-74
2023/09/14 05:34:03;;;;;;;0.85;0.50;;;;;;;21.47;50.24;102238.81;5112149;28;20662;-74
2023/09/14 05:36:29;;;;;;;0.70;0.50;;;;;;;21.71;50.44;102274.25;5107690;28;20028;-74
2023/09/14 05:38:54;;;;;;;0.65;0.45;;;;;;;21.45;50.50;102236.25;5112873;28;20032;-74
2023/09/14 05:41:19;;;;;;;0.60;0.50;;;;;;;21.44;50.18;102234.53;5111963;28;20024;-73
2023/09/14 05:43:45;;;;;;;0.82;0.60;;;;;;;21.69;50.45;102283.50;5106827;28;20028;-73
2023/09/14 05:46:10;;;;;;;0.65;0.50;;;;;;;21.20;50.11;102199.09;5116291;28;20051;-74
2023/09/14 05:48:35;;;;;;;1.27;0.60;;;;;;;21.39;50.26;102238.72;5113053;28;20448;-74
2023/09/14 05:51:00;;;;;;;2.33;0.50;;;;;;;21.55;50.29;102256.97;5109501;28;20032;-74
2023/09/14 05:53:26;;;;;;;0.50;0.40;;;;;;;21.47;50.21;102244.22;5118482;28;20049;-74
2023/09/14 05:55:53;;;;;;;0.70;0.40;;;;;;;21.42;50.11;102233.00;5119040;28;20109;-74
2023/09/14 05:58:18;;;;;;;1.10;0.52;;;;;;;21.61;50.31;102276.16;5111064;28;20024;-74
2023/09/14 06:00:44;;;;;;;1.30;0.63;;;;;;;21.06;50.15;102183.38;5102885;28;20034;-73
2023/09/14 06:03:09;;;;;;;0.57;0.40;;;;;;;21.58;50.28;102273.78;5114678;28;20098;-74
2023/09/14 06:05:34;;;;;;;0.57;0.57;;;;;;;21.50;50.38;102256.59;5109745;28;20053;-74
2023/09/14 06:08:00;;;;;;;0.75;0.50;;;;;;;21.59;50.41;102280.03;5116384;28;20126;-74
2023/09/14 06:10:25;;;;;;;0.68;0.50;;;;;;;21.43;50.16;102250.94;5110022;28;20024;-74
2023/09/14 06:12:51;;;;;;;1.55;0.45;;;;;;;21.45;50.37;102263.31;5111518;28;20108;-74
2023/09/14 06:15:16;;;;;;;0.88;0.50;;;;;;;21.63;50.21;102297.66;5105757;28;20057;-74
2023/09/14 06:17:41;;;;;;;1.02;0.60;;;;;;;21.43;50.52;102262.59;5109128;28;20036;-73
2023/09/14 06:20:07;;;;;;;0.82;0.60;;;;;;;21.38;50.35;102258.66;5113338;28;20035;-73
2023/09/14 06:22:33;;;;;;;0.60;0.50;;;;;;;21.39;50.19;102258.50;5100389;28;20020;-74
2023/09/14 06:24:58;;;;;;;1.40;0.60;;;;;;;21.52;50.08;102282.47;5106164;28;20074;-74
2023/09/14 06:27:23;;;;;;;1.02;0.65;;;;;;;21.61;50.33;102295.09;5115387;28;20468;-74
2023/09/14 06:29:49;;;;;;;1.00;0.60;;;;;;;21.27;50.26;102243.44;5112872;28;20031;-74
2023/09/14 06:32:14;;;;;;;0.93;0.57;;;;;;;21.49;50.54;102273.81;5088146;28;20028;-74
2023/09/14 06:34:39;;;;;;;0.77;0.65;;;;;;;21.62;50.40;102298.66;5118528;28;20028;-74
2023/09/14 06:37:05;;;;;;;0.60;0.50;;;;;;;21.56;50.25;102294.72;5111637;28;20035;-74
2023/09/14 06:39:30;;;;;;;2.13;1.20;;;;;;;21.62;50.13;102295.94;5107739;28;20032;-74
2023/09/14 06:41:55;;;;;;;0.98;0.75;;;;;;;21.46;50.40;102278.53;5104649;28;20038;-74
2023/09/14 06:44:21;;;;;;;0.90;0.60;;;;;;;21.34;50.43;102263.53;5111243;28;20030;-73
2023/09/14 06:46:47;;;;;;;1.00;0.70;;;;;;;20.87;50.24;102177.09;5108443;28;20020;-74
2023/09/14 06:49:12;;;;;;;0.90;0.80;;;;;;;21.61;50.35;102307.78;5115655;28;20092;-74
2023/09/14 06:51:38;;;;;;;1.27;0.80;;;;;;;21.61;50.29;102307.78;5110881;28;20035;-74
2023/09/14 06:54:04;;;;;;;1.40;0.70;;;;;;;21.48;50.55;102291.06;5090450;28;20104;-73
2023/09/14 06:56:29;;;;;;;2.38;0.80;;;;;;;21.10;50.12;102219.94;5104267;28;20035;-74
2023/09/14 06:58:55;;;;;;;1.13;0.77;;;;;;;21.48;50.66;102291.06;5103334;28;20111;-74
2023/09/14 07:01:21;;;;;;;1.13;0.63;;;;;;;21.61;50.31;102303.22;5108738;28;20024;-74
2023/09/14 07:03:49;;;;;;;1.20;0.70;;;;;;;21.33;50.50;102264.53;5105760;28;20031;-74
2023/09/14 07:06:14;;;;;;;1.50;0.80;;;;;;;21.55;50.76;102301.13;5087248;28;20032;-74
2023/09/14 07:08:41;;;;;;;1.15;0.60;;;;;;;21.62;50.57;102309.47;5110014;28;20040;-74
2023/09/14 07:11:06;;;;;;;1.05;0.70;;;;;;;21.62;50.56;102309.47;5103535;28;20020;-74
2023/09/14 07:13:32;;;;;;;1.10;0.75;;;;;;;21.56;50.47;102296.56;5109389;28;20035;-74
2023/09/14 07:15:58;;;;;;;0.80;0.60;;;;;;;21.62;50.84;102307.66;5113066;28;20027;-74
2023/09/14 07:18:28;;;;;;;0.80;0.60;;;;;;;21.62;50.73;102304.06;5119849;28;20031;-74
2023/09/14 07:20:55;;;;;;;1.40;0.70;;;;;;;21.62;50.73;102302.22;5112514;28;20062;-74
2023/09/14 07:23:20;;;;;;;1.10;0.63;;;;;;;21.56;50.85;102302.81;5116726;28;20024;-74
2023/09/14 07:25:47;;;;;;;1.27;0.80;;;;;;;21.63;50.70;102311.19;5111810;28;20039;-74
2023/09/14 07:28:12;;;;;;;2.47;0.85;;;;;;;21.50;50.74;102289.06;5111222;28;20123;-74
2023/09/14 07:30:37;;;;;;;1.10;0.68;;;;;;;21.39;50.63;102280.16;5118128;28;20035;-74
2023/09/14 07:33:03;;;;;;;1.13;0.82;;;;;;;21.63;50.59;102316.63;5112331;28;20095;-74
2023/09/14 07:35:28;;;;;;;1.35;0.93;;;;;;;21.63;50.62;102314.75;5116495;28;20101;-73
2023/09/14 07:37:53;;;;;;;1.60;0.70;;;;;;;21.45;50.99;102278.69;5114560;28;20019;-74
2023/09/14 07:40:19;;;;;;;0.88;0.52;;;;;;;21.46;50.96;102291.22;5125382;28;20024;-74
2023/09/14 07:42:44;;;;;;;1.70;1.05;;;;;;;21.59;50.78;102299.81;5117261;28;20057;-74
2023/09/14 07:45:09;;;;;;;0.93;0.70;;;;;;;21.38;51.05;102274.91;5114628;28;20042;-73
2023/09/14 07:47:35;;;;;;;2.63;1.45;;;;;;;21.52;51.11;102300.59;5111584;28;20032;-74
2023/09/14 07:50:00;;;;;;;1.67;0.80;;;;;;;21.57;50.97;102314.50;5124863;28;20480;-74
2023/09/14 07:52:25;;;;;;;1.50;0.90;;;;;;;21.66;50.93;102316.28;5114232;28;20114;-74
2023/09/14 07:54:51;;;;;;;2.20;0.88;;;;;;;21.65;51.03;102325.41;5109924;28;20028;-73
2023/09/14 07:57:16;;;;;;;1.48;0.80;;;;;;;21.50;51.00;102303.44;5118023;28;20017;-74
2023/09/14 07:59:41;;;;;;;2.38;0.88;;;;;;;21.53;50.85;102299.56;5112908;28;20031;-74
2023/09/14 08:02:08;;;;;;;2.58;1.20;;;;;;;21.41;51.07;102280.88;5112797;28;20032;-74
2023/09/14 08:04:33;;;;;;;2.20;1.00;;;;;;;21.65;51.05;102318.16;5121288;28;20504;-74
2023/09/14 08:07:01;;;;;;;2.22;0.93;;;;;;;21.68;51.29;102322.41;5116067;28;20042;-74
2023/09/14 08:09:27;;;;;;;1.58;1.00;;;;;;;21.67;50.85;102323.44;5112265;28;20122;-74
2023/09/14 08:11:53;;;;;;;1.67;0.90;;;;;;;21.54;51.26;102304.00;5116693;28;20041;-74
2023/09/14 08:14:18;;;;;;;1.92;0.98;;;;;;;21.58;51.19;102308.97;5111824;28;20024;-74
2023/09/14 08:16:43;;;;;;;2.03;1.05;;;;;;;21.54;51.34;102307.56;5122815;28;20055;-74
2023/09/14 08:19:09;;;;;;;1.67;0.90;;;;;;;21.58;51.19;102314.38;5115049;28;20061;-74
2023/09/14 08:21:34;;;;;;;2.60;0.93;;;;;;;21.67;51.22;102326.13;5095913;28;20023;-74
2023/09/14 08:23:59;;;;;;;1.23;1.02;;;;;;;21.69;51.02;102340.34;5114720;28;20031;-74
2023/09/14 08:26:25;;;;;;;1.65;1.00;;;;;;;21.58;51.13;102314.38;5114189;28;20038;-74
2023/09/14 08:28:51;;;;;;;1.88;1.02;;;;;;;21.51;51.14;102302.44;5108052;28;20039;-74
2023/09/14 08:31:16;;;;;;;1.30;0.82;;;;;;;21.44;51.24;102283.25;5117671;28;20090;-74
2023/09/14 08:33:41;;;;;;;1.67;0.90;;;;;;;21.71;51.07;102331.09;5114016;28;20039;-74
2023/09/14 08:36:07;;;;;;;1.33;0.77;;;;;;;21.57;51.10;102301.81;5107229;28;20031;-74
2023/09/14 08:38:32;;;;;;;1.40;0.90;;;;;;;21.71;51.18;102331.09;5121724;28;20043;-73
2023/09/14 08:41:00;;;;;;;1.70;1.00;;;;;;;21.62;51.33;102315.75;5121069;28;20034;-74
2023/09/14 08:43:26;;;;;;;2.08;0.80;;;;;;;21.66;51.48;102325.28;5113564;28;20028;-74
2023/09/14 08:45:52;;;;;;;1.33;0.80;;;;;;;21.50;51.20;102302.59;5116361;28;20092;-74
2023/09/14 08:48:20;;;;;;;1.73;1.05;;;;;;;21.74;51.38;102343.44;5110042;28;20028;-74
2023/09/14 08:50:46;;;;;;;1.67;0.87;;;;;;;21.75;51.28;102341.59;5112263;28;20083;-74
2023/09/14 08:53:13;;;;;;;2.13;1.00;;;;;;;21.69;51.41;102324.13;5113602;28;20279;-74
2023/09/14 08:55:38;;;;;;;1.60;0.73;;;;;;;21.38;51.42;102266.78;5110786;28;20026;-74
2023/09/14 08:58:04;;;;;;;1.35;0.80;;;;;;;21.76;51.47;102327.91;5113556;28;20055;-73
2023/09/14 09:00:30;;;;;;;1.83;1.00;;;;;;;21.77;51.17;102328.78;5113901;28;20023;-74
2023/09/14 09:02:56;;;;;;;2.00;1.33;;;;;;;21.77;51.56;102318.78;5089923;28;20066;-74
2023/09/14 09:05:24;;;;;;;2.13;1.08;;;;;;;21.40;51.10;102268.31;5115816;28;20020;-74
2023/09/14 09:07:50;;;;;;;2.35;1.08;;;;;;;21.71;51.52;102317.56;5067609;28;1094763;-74
2023/09/14 09:10:21;;;;;;;1.95;1.20;;;;;;;21.57;51.23;102287.44;5108286;28;20032;-73
2023/09/14 09:12:46;;;;;;;1.38;0.88;;;;;;;21.79;51.54;102322.22;5111785;28;20056;-74
2023/09/14 09:15:13;;;;;;;1.50;0.88;;;;;;;21.81;51.25;102322.03;5111961;27;20016;-74
2023/09/14 09:17:42;;;;;;;1.23;0.88;;;;;;;21.81;51.30;102316.63;5109302;28;20527;-74
2023/09/14 09:20:19;;;;;;;1.50;0.80;;;;;;;21.83;51.26;102317.31;5109979;28;20028;-74
2023/09/14 09:22:45;;;;;;;1.65;0.85;;;;;;;21.79;51.44;102313.22;5100686;28;20030;-73
2023/09/14 09:25:11;;;;;;;3.50;1.05;;;;;;;21.85;51.33;102315.31;5109764;28;20091;-74
2023/09/14 09:27:39;;;;;;;1.30;0.93;;;;;;;21.75;51.42;102299.16;5103830;28;20109;-74
2023/09/14 09:30:05;;;;;;;1.03;0.73;;;;;;;21.79;51.26;102297.84;5106739;28;20042;-74
2023/09/14 09:32:31;;;;;;;1.40;0.80;;;;;;;21.88;51.67;102312.31;5109998;28;20035;-74
2023/09/14 09:35:00;;;;;;;1.30;0.93;;;;;;;21.89;51.64;102314.00;5091352;28;20035;-74
2023/09/14 09:37:25;;;;;;;1.00;0.75;;;;;;;21.90;51.29;102307.56;5121244;28;20022;-74
2023/09/14 09:39:51;;;;;;;1.20;0.80;;;;;;;21.80;51.62;102294.13;5109718;28;20036;-74
2023/09/14 09:42:19;;;;;;;1.88;1.05;;;;;;;21.93;51.52;102308.13;5110439;28;20028;-73
2023/09/14 09:44:45;;;;;;;1.45;0.77;;;;;;;21.50;51.97;102234.94;5109006;28;20023;-74
2023/09/14 09:47:13;;;;;;;1.85;1.10;;;;;;;21.95;51.90;102307.94;5097077;28;20120;-74
2023/09/14 09:49:39;;;;;;;2.20;1.20;;;;;;;21.79;51.72;102281.59;5110959;28;20463;-74
2023/09/14 09:52:04;;;;;;;1.65;1.00;;;;;;;21.74;51.96;102264.09;5110960;28;20063;-74
2023/09/14 09:54:30;;;;;;;1.45;1.05;;;;;;;21.90;51.82;102289.47;5114910;28;20039;-74
2023/09/14 09:56:56;;;;;;;2.33;1.20;;;;;;;21.98;51.81;102298.69;5119151;28;20020;-74
2023/09/14 09:59:25;;;;;;;1.88;1.27;;;;;;;21.69;51.89;102240.19;5110643;28;20028;-74
2023/09/14 10:01:51;;;;;;;1.77;1.00;;;;;;;21.99;51.93;102289.53;5117824;28;20020;-73
2023/09/14 10:04:17;;;;;;;2.35;1.08;;;;;;;21.84;52.13;102260.31;5108791;28;20036;-74
2023/09/14 10:06:49;;;;;;;2.15;1.25;;;;;;;;;;5112073;28;20537;-74
2023/09/14 10:09:14;;;;;;;1.63;1.13;;;;;;;22.01;51.96;102290.25;5113536;28;20052;-74
2023/09/14 10:11:40;;;;;;;1.50;1.00;;;;;;;21.86;52.02;102279.94;5106192;28;20543;-73
2023/09/14 10:14:06;;;;;;;2.30;0.90;;;;;;;21.80;52.13;102268.91;5100636;28;20026;-74
2023/09/14 10:16:40;;;;;;;2.03;1.30;;;;;;;22.01;52.09;102296.53;5117244;28;20065;-74
2023/09/14 10:19:06;;;;;;;2.08;1.00;;;;;;;;;;5111761;28;20035;-74
2023/09/14 10:21:32;;;;;;;1.98;1.15;;;;;;;21.82;52.32;102258.75;5116771;28;20028;-74
2023/09/14 10:23:57;;;;;;;1.63;1.00;;;;;;;21.96;51.99;102283.44;5110525;28;20700;-74
2023/09/14 10:26:23;;;;;;;2.20;1.15;;;;;;;21.83;52.52;102261.28;5107523;28;20027;-73
2023/09/14 10:28:48;;;;;;;1.90;1.30;;;;;;;22.05;52.38;102297.06;5115288;28;20028;-74
2023/09/14 10:31:14;;;;;;;2.10;1.23;;;;;;;21.75;52.15;102246.84;5108383;28;20028;-74
2023/09/14 10:33:44;;;;;;;1.88;1.10;;;;;;;21.88;52.13;102259.00;5092105;28;20016;-74
2023/09/14 10:36:10;;;;;;;2.13;1.50;;;;;;;22.09;52.20;102298.41;5119761;28;20016;-74
2023/09/14 10:38:38;;;;;;;2.13;1.48;;;;;;;21.88;52.05;102256.28;5112255;28;20344;-74
2023/09/14 10:41:04;;;;;;;;;;;;;;;22.12;52.17;102296.28;5113471;28;20024;-74
2023/09/14 10:43:29;;;;;;;1.88;1.08;;;;;;;21.83;52.28;102244.22;5118174;28;19970;-74
2023/09/14 10:46:00;;;;;;;2.08;1.42;;;;;;;22.07;52.04;102285.03;5088513;28;20016;-74
2023/09/14 10:48:29;;;;;;;3.63;1.50;;;;;;;22.06;52.07;102275.22;5115458;28;20027;-74
2023/09/14 10:50:58;;;;;;;1.90;1.23;;;;;;;21.84;52.01;102233.25;5116600;28;20034;-74
2023/09/14 10:53:24;;;;;;;;;;;;;;;22.16;52.26;102280.56;5106608;28;20051;-74
2023/09/14 10:55:49;;;;;;;1.63;1.10;;;;;;;21.91;52.19;102239.72;5117209;28;19907;-74
2023/09/14 10:58:16;;;;;;;4.65;1.65;;;;;;;22.14;52.33;102279.91;5110348;28;20062;-74
2023/09/14 11:00:42;;;;;;;2.28;1.17;;;;;;;22.05;52.27;102261.84;5122590;28;20016;-74
2023/09/14 11:03:09;;;;;;;2.30;1.48;;;;;;;22.19;52.24;102270.28;5115916;28;20481;-74
2023/09/14 11:05:49;;;;;;;2.97;1.77;;;;;;;22.14;52.34;102264.50;5108670;28;20020;-74
2023/09/14 11:08:19;;;;;;;3.78;1.25;;;;;;;22.22;52.41;102266.41;5114151;28;20081;-75
2023/09/14 11:10:55;;;;;;;2.28;1.35;;;;;;;22.03;52.34;102242.19;5114197;28;20634;-74
2023/09/14 11:13:21;;;;;;;2.40;1.50;;;;;;;22.14;52.50;102250.09;5091272;28;20095;-74
2023/09/14 11:15:47;;;;;;;2.15;1.35;;;;;;;22.25;52.24;102262.53;5119076;28;20035;-74
2023/09/14 11:18:16;;;;;;;2.80;1.38;;;;;;;22.27;52.66;102265.94;5112394;28;20039;-75
2023/09/14 11:20:44;;;;;;;2.58;1.30;;;;;;;22.29;52.62;102267.47;5106572;28;20020;-74
2023/09/14 11:23:09;;;;;;;1.80;1.30;;;;;;;22.30;52.43;102271.91;5109732;28;20075;-75